createdAt,value
2022-10-07T00:02:18.684Z,77
2022-10-07T00:05:18.617Z,77
2022-10-07T00:08:18.624Z,77
2022-10-07T00:11:18.618Z,77
2022-10-07T00:14:18.634Z,77
2022-10-07T00:17:18.626Z,77
2022-10-07T00:20:18.626Z,77
2022-10-07T00:23:18.631Z,78
2022-10-07T00:26:18.628Z,78
2022-10-07T00:29:18.644Z,78
2022-10-07T00:32:18.630Z,78
2022-10-07T00:35:18.585Z,78
2022-10-07T00:38:18.569Z,78
2022-10-07T00:41:18.573Z,78
2022-10-07T00:44:18.583Z,78
2022-10-07T00:47:18.578Z,78
2022-10-07T00:50:18.570Z,78
2022-10-07T00:53:18.574Z,78
2022-10-07T00:56:18.570Z,78
2022-10-07T00:59:18.575Z,78
2022-10-07T01:02:18.615Z,78
2022-10-07T01:05:18.572Z,78
2022-10-07T01:08:18.571Z,78
2022-10-07T01:11:18.589Z,78
2022-10-07T01:14:18.585Z,78
2022-10-07T01:17:18.581Z,78
2022-10-07T01:20:18.582Z,78
2022-10-07T01:23:18.585Z,78
2022-10-07T01:26:18.583Z,78
2022-10-07T01:29:18.594Z,78
2022-10-07T01:32:18.584Z,78
2022-10-07T01:35:18.575Z,78
2022-10-07T01:38:18.588Z,78
2022-10-07T01:41:18.582Z,78
2022-10-07T01:44:18.591Z,78
2022-10-07T01:47:18.586Z,78
2022-10-07T01:50:18.587Z,78
2022-10-07T01:53:18.591Z,78
2022-10-07T01:56:18.595Z,78
2022-10-07T01:59:18.596Z,78
2022-10-07T02:02:18.594Z,78
2022-10-07T02:05:18.582Z,78
2022-10-07T02:08:18.717Z,78
2022-10-07T02:11:18.593Z,78
2022-10-07T02:14:18.597Z,78
2022-10-07T02:17:18.600Z,78
2022-10-07T02:20:18.590Z,78
2022-10-07T02:23:18.597Z,78
2022-10-07T02:26:18.599Z,78
2022-10-07T02:29:18.603Z,78
2022-10-07T02:32:18.600Z,78
2022-10-07T02:35:18.592Z,79
2022-10-07T02:38:18.600Z,79
2022-10-07T02:41:18.597Z,79
2022-10-07T02:44:18.638Z,79
2022-10-07T02:47:18.593Z,79
2022-10-07T02:50:18.589Z,79
2022-10-07T02:53:18.601Z,79
2022-10-07T02:56:18.601Z,79
2022-10-07T02:59:18.610Z,79
2022-10-07T03:02:18.599Z,79
2022-10-07T03:05:18.594Z,79
2022-10-07T03:08:18.606Z,79
2022-10-07T03:11:18.599Z,79
2022-10-07T03:14:18.624Z,79
2022-10-07T03:17:18.607Z,79
2022-10-07T03:20:18.599Z,79
2022-10-07T03:23:18.608Z,79
2022-10-07T03:26:18.606Z,79
2022-10-07T03:29:18.606Z,79
2022-10-07T03:32:18.609Z,79
2022-10-07T03:35:18.605Z,79
2022-10-07T03:38:18.628Z,79
2022-10-07T03:41:18.609Z,79
2022-10-07T03:44:18.626Z,79
2022-10-07T03:47:18.609Z,79
2022-10-07T03:50:18.606Z,79
2022-10-07T03:53:18.604Z,79
2022-10-07T03:56:18.613Z,79
2022-10-07T03:59:18.606Z,79
2022-10-07T04:02:18.633Z,79
2022-10-07T04:05:18.607Z,80
2022-10-07T04:08:18.617Z,80
2022-10-07T04:11:18.613Z,80
2022-10-07T04:17:18.621Z,80
2022-10-07T04:20:18.630Z,80
2022-10-07T04:23:18.615Z,80
2022-10-07T04:26:18.616Z,80
2022-10-07T04:29:18.612Z,80
2022-10-07T04:32:18.633Z,80
2022-10-07T04:35:18.610Z,80
2022-10-07T04:38:18.628Z,80
2022-10-07T04:41:18.608Z,80
2022-10-07T04:44:18.623Z,80
2022-10-07T04:47:18.628Z,80
2022-10-07T04:50:18.622Z,80
2022-10-07T04:53:18.614Z,80
2022-10-07T04:56:18.615Z,80
2022-10-07T04:59:21.330Z,80
2022-10-07T05:02:18.689Z,80
2022-10-07T05:05:18.620Z,80
2022-10-07T05:08:18.615Z,80
2022-10-07T05:11:18.620Z,80
2022-10-07T05:14:18.614Z,80
2022-10-07T05:17:18.642Z,80
2022-10-07T05:20:18.620Z,80
2022-10-07T05:23:18.619Z,80
2022-10-07T05:26:18.612Z,80
2022-10-07T05:29:18.624Z,80
2022-10-07T05:32:18.631Z,80
2022-10-07T05:35:18.629Z,80
2022-10-07T05:38:18.619Z,80
2022-10-07T05:41:18.617Z,80
2022-10-07T05:44:18.621Z,80
2022-10-07T05:47:18.637Z,80
2022-10-07T05:50:19.011Z,80
2022-10-07T05:53:19.027Z,80
2022-10-07T05:56:19.026Z,80
2022-10-07T05:59:19.018Z,80
2022-10-07T06:02:19.191Z,80
2022-10-07T06:05:19.023Z,80
2022-10-07T06:08:19.022Z,80
2022-10-07T06:11:19.021Z,80
2022-10-07T06:14:19.029Z,80
2022-10-07T06:17:19.033Z,80
2022-10-07T06:20:20.221Z,80
2022-10-07T06:23:19.040Z,80
2022-10-07T06:26:19.045Z,80
2022-10-07T06:29:19.037Z,80
2022-10-07T06:32:19.052Z,80
2022-10-07T06:35:19.043Z,80
2022-10-07T06:38:19.046Z,80
2022-10-07T06:41:19.051Z,80
2022-10-07T06:44:19.044Z,80
2022-10-07T06:47:19.055Z,80
2022-10-07T06:50:19.057Z,80
2022-10-07T06:53:19.048Z,80
2022-10-07T06:56:19.084Z,80
2022-10-07T06:59:19.057Z,80
2022-10-07T07:02:19.193Z,80
2022-10-07T07:05:19.153Z,80
2022-10-07T07:08:19.142Z,80
2022-10-07T07:11:19.145Z,80
2022-10-07T07:14:19.155Z,80
2022-10-07T07:17:19.148Z,80
2022-10-07T07:23:19.158Z,80
2022-10-07T07:26:19.145Z,80
2022-10-07T07:29:19.143Z,80
2022-10-07T07:32:19.165Z,80
2022-10-07T07:38:22.088Z,80
2022-10-07T07:41:19.143Z,80
2022-10-07T07:44:19.136Z,80
2022-10-07T07:47:19.180Z,80
2022-10-07T07:50:19.138Z,80
2022-10-07T07:53:19.156Z,80
2022-10-07T07:56:19.156Z,80
2022-10-07T07:59:19.144Z,80
2022-10-07T08:02:19.386Z,80
2022-10-07T08:05:23.609Z,80
2022-10-07T08:08:19.133Z,80
2022-10-07T08:11:19.153Z,80
2022-10-07T08:17:19.191Z,80
2022-10-07T08:20:19.182Z,80
2022-10-07T08:23:19.147Z,80
2022-10-07T08:26:19.168Z,80
2022-10-07T08:29:19.152Z,80
2022-10-07T08:32:19.161Z,80
2022-10-07T08:35:19.143Z,80
2022-10-07T08:38:19.145Z,80
2022-10-07T08:41:19.160Z,80
2022-10-07T08:44:19.145Z,80
2022-10-07T08:47:19.158Z,80
2022-10-07T08:50:20.115Z,80
2022-10-07T08:53:19.151Z,80
2022-10-07T08:56:19.160Z,80
2022-10-07T08:59:19.155Z,80
2022-10-07T09:02:19.193Z,80
2022-10-07T09:05:19.146Z,79
2022-10-07T09:08:19.145Z,79
2022-10-07T09:11:19.149Z,79
2022-10-07T09:14:19.142Z,79
2022-10-07T09:17:19.178Z,79
2022-10-07T09:20:19.157Z,79
2022-10-07T09:23:19.173Z,79
2022-10-07T09:26:19.164Z,79
2022-10-07T09:29:19.160Z,79
2022-10-07T09:32:19.174Z,79
2022-10-07T09:35:19.172Z,78
2022-10-07T09:38:19.165Z,78
2022-10-07T09:41:19.181Z,78
2022-10-07T09:44:19.170Z,78
2022-10-07T09:47:19.189Z,78
2022-10-07T09:50:19.227Z,78
2022-10-07T09:53:19.171Z,78
2022-10-07T09:56:19.187Z,78
2022-10-07T09:59:19.174Z,77
2022-10-07T10:02:19.258Z,77
2022-10-07T10:05:19.180Z,77
2022-10-07T10:08:19.175Z,77
2022-10-07T10:11:19.193Z,77
2022-10-07T10:14:19.239Z,77
2022-10-07T10:17:19.188Z,77
2022-10-07T10:20:19.241Z,76
2022-10-07T10:23:19.189Z,76
2022-10-07T10:26:19.183Z,76
2022-10-07T10:29:19.178Z,76
2022-10-07T10:32:19.181Z,76
2022-10-07T10:35:19.185Z,76
2022-10-07T10:38:19.178Z,76
2022-10-07T10:41:19.877Z,75
2022-10-07T10:44:19.174Z,75
2022-10-07T10:47:19.183Z,75
2022-10-07T10:50:19.175Z,75
2022-10-07T10:53:19.175Z,75
2022-10-07T10:56:19.181Z,75
2022-10-07T10:59:19.182Z,75
2022-10-07T11:02:19.377Z,75
2022-10-07T11:05:19.192Z,75
2022-10-07T11:08:19.176Z,75
2022-10-07T11:11:19.188Z,74
2022-10-07T11:14:19.179Z,74
2022-10-07T11:17:19.187Z,74
2022-10-07T11:20:19.196Z,74
2022-10-07T11:23:19.195Z,74
2022-10-07T11:26:19.184Z,74
2022-10-07T11:29:19.182Z,74
2022-10-07T11:32:19.194Z,73
2022-10-07T11:35:19.208Z,73
2022-10-07T11:38:19.185Z,73
2022-10-07T11:41:19.186Z,73
2022-10-07T11:44:19.184Z,73
2022-10-07T11:47:19.239Z,72
2022-10-07T11:50:19.193Z,72
2022-10-07T11:53:19.190Z,72
2022-10-07T11:59:19.185Z,72
2022-10-07T12:02:19.204Z,72
2022-10-07T12:05:19.196Z,72
2022-10-07T12:08:19.195Z,72
2022-10-07T12:11:19.200Z,72
2022-10-07T12:14:19.199Z,72
2022-10-07T12:17:19.206Z,72
2022-10-07T12:20:19.196Z,72
2022-10-07T12:23:19.198Z,72
2022-10-07T12:26:19.203Z,72
2022-10-07T12:29:19.194Z,72
2022-10-07T12:32:19.203Z,72
2022-10-07T12:35:19.203Z,72
2022-10-07T12:38:19.197Z,72
2022-10-07T12:41:19.209Z,71
2022-10-07T12:44:19.204Z,71
2022-10-07T12:47:19.211Z,71
2022-10-07T12:50:19.210Z,71
2022-10-07T12:53:19.204Z,71
2022-10-07T12:56:19.201Z,71
2022-10-07T12:59:19.197Z,71
2022-10-07T13:02:19.241Z,71
2022-10-07T13:05:19.205Z,70
2022-10-07T13:08:19.199Z,70
2022-10-07T13:11:19.210Z,70
2022-10-07T13:14:19.199Z,70
2022-10-07T13:17:19.216Z,70
2022-10-07T13:20:19.217Z,70
2022-10-07T13:23:22.075Z,70
2022-10-07T13:26:19.214Z,70
2022-10-07T13:29:20.009Z,70
2022-10-07T13:32:19.236Z,70
2022-10-07T13:38:19.213Z,70
2022-10-07T13:41:19.212Z,70
2022-10-07T13:44:19.221Z,70
2022-10-07T13:47:19.215Z,70
2022-10-07T13:50:19.213Z,70
2022-10-07T13:53:19.215Z,70
2022-10-07T13:56:19.224Z,70
2022-10-07T13:59:19.228Z,70
2022-10-07T14:02:19.328Z,70
2022-10-07T14:05:19.213Z,70
2022-10-07T14:08:19.218Z,70
2022-10-07T14:11:19.223Z,70
2022-10-07T14:14:19.210Z,70
2022-10-07T14:17:19.216Z,70
2022-10-07T14:20:19.230Z,71
2022-10-07T14:23:19.215Z,71
2022-10-07T14:26:19.220Z,70
2022-10-07T14:29:19.222Z,71
2022-10-07T14:32:19.226Z,70
2022-10-07T14:35:19.206Z,71
2022-10-07T14:38:19.220Z,71
2022-10-07T14:44:19.221Z,71
2022-10-07T14:47:19.223Z,70
2022-10-07T14:50:19.228Z,70
2022-10-07T14:53:19.272Z,70
2022-10-07T14:56:19.240Z,70
2022-10-07T14:59:19.230Z,70
2022-10-07T15:02:19.226Z,70
2022-10-07T15:05:19.301Z,70
2022-10-07T15:11:19.225Z,71
2022-10-07T15:14:19.236Z,71
2022-10-07T15:17:19.222Z,71
2022-10-07T15:20:19.237Z,71
2022-10-07T15:23:19.229Z,71
2022-10-07T15:26:19.239Z,71
2022-10-07T15:29:19.229Z,71
2022-10-07T15:32:19.239Z,71
2022-10-07T15:35:19.232Z,71
2022-10-07T15:38:19.237Z,71
2022-10-07T15:41:19.246Z,71
2022-10-07T15:44:19.235Z,71
2022-10-07T15:47:19.230Z,71
2022-10-07T15:50:19.230Z,71
2022-10-07T15:53:19.232Z,71
2022-10-07T15:56:19.241Z,72
2022-10-07T15:59:19.241Z,72
2022-10-07T16:02:19.258Z,72
2022-10-07T16:05:19.229Z,72
2022-10-07T16:08:19.228Z,72
2022-10-07T16:11:19.236Z,72
2022-10-07T16:14:19.222Z,72
2022-10-07T16:17:19.232Z,72
2022-10-07T16:20:19.240Z,73
2022-10-07T16:23:19.228Z,73
2022-10-07T16:26:19.245Z,73
2022-10-07T16:29:19.226Z,73
2022-10-07T16:32:19.229Z,73
2022-10-07T16:35:19.235Z,73
2022-10-07T16:38:19.244Z,73
2022-10-07T16:41:19.238Z,73
2022-10-07T16:44:19.242Z,73
2022-10-07T16:47:19.237Z,73
2022-10-07T16:50:19.253Z,73
2022-10-07T16:53:19.245Z,74
2022-10-07T16:56:19.246Z,74
2022-10-07T16:59:22.234Z,74
2022-10-07T17:02:19.254Z,74
2022-10-07T17:05:19.252Z,74
2022-10-07T17:08:19.243Z,74
2022-10-07T17:11:19.240Z,74
2022-10-07T17:14:19.251Z,74
2022-10-07T17:17:19.252Z,74
2022-10-07T17:20:19.243Z,74
2022-10-07T17:23:19.258Z,74
2022-10-07T17:26:19.253Z,75
2022-10-07T17:29:19.258Z,75
2022-10-07T17:32:19.244Z,75
2022-10-07T17:35:19.253Z,75
2022-10-07T17:38:19.241Z,75
2022-10-07T17:41:19.260Z,75
2022-10-07T17:44:19.255Z,75
2022-10-07T17:47:19.256Z,75
2022-10-07T17:50:19.253Z,75
2022-10-07T17:53:19.260Z,75
2022-10-07T17:56:19.260Z,75
2022-10-07T17:59:19.267Z,76
2022-10-07T18:02:19.257Z,76
2022-10-07T18:05:19.248Z,76
2022-10-07T18:08:19.269Z,76
2022-10-07T18:11:19.258Z,76
2022-10-07T18:14:19.265Z,76
2022-10-07T18:17:19.267Z,77
2022-10-07T18:20:19.260Z,77
2022-10-07T18:23:19.258Z,77
2022-10-07T18:26:19.279Z,77
2022-10-07T18:29:19.278Z,77
2022-10-07T18:32:19.267Z,77
2022-10-07T18:35:19.262Z,77
2022-10-07T18:38:19.272Z,78
2022-10-07T18:41:19.276Z,78
2022-10-07T18:44:19.284Z,78
2022-10-07T18:47:19.263Z,78
2022-10-07T18:50:19.260Z,78
2022-10-07T18:53:19.264Z,78
2022-10-07T18:56:19.273Z,78
2022-10-07T18:59:19.283Z,78
2022-10-07T19:02:19.308Z,79
2022-10-07T19:05:19.261Z,79
2022-10-07T19:08:19.268Z,79
2022-10-07T19:11:19.301Z,79
2022-10-07T19:14:19.282Z,79
2022-10-07T19:17:19.274Z,79
2022-10-07T19:20:19.286Z,79
2022-10-07T19:23:19.265Z,79
2022-10-07T19:26:21.451Z,79
2022-10-07T19:29:19.281Z,79
2022-10-07T19:32:19.285Z,79
2022-10-07T19:35:19.275Z,79
2022-10-07T19:41:19.271Z,79
2022-10-07T19:44:19.293Z,79
2022-10-07T19:47:19.271Z,79
2022-10-07T19:50:19.275Z,80
2022-10-07T19:53:19.283Z,80
2022-10-07T19:56:19.284Z,80
2022-10-07T19:59:19.287Z,80
2022-10-07T20:02:19.314Z,80
2022-10-07T20:05:19.273Z,80
2022-10-07T20:08:19.289Z,80
2022-10-07T20:11:19.274Z,80
2022-10-07T20:14:19.302Z,80
2022-10-07T20:17:19.288Z,80
2022-10-07T20:20:19.275Z,80
2022-10-07T20:23:19.273Z,80
2022-10-07T20:26:19.273Z,80
2022-10-07T20:29:22.763Z,80
2022-10-07T20:32:19.278Z,80
2022-10-07T20:35:19.303Z,80
2022-10-07T20:38:19.281Z,80
2022-10-07T20:41:19.288Z,80
2022-10-07T20:44:19.293Z,80
2022-10-07T20:47:19.304Z,80
2022-10-07T20:50:19.294Z,80
2022-10-07T20:53:19.292Z,80
2022-10-07T20:56:19.278Z,80
2022-10-07T20:59:19.313Z,80
2022-10-07T21:02:19.372Z,80
2022-10-07T21:05:19.297Z,80
2022-10-07T21:08:19.288Z,81
2022-10-07T21:11:19.305Z,81
2022-10-07T21:14:19.307Z,81
2022-10-07T21:17:19.302Z,81
2022-10-07T21:20:19.286Z,81
2022-10-07T21:23:19.299Z,81
2022-10-07T21:26:19.290Z,81
2022-10-07T21:29:19.307Z,81
2022-10-07T21:32:19.294Z,81
2022-10-07T21:35:19.306Z,81
2022-10-07T21:38:19.291Z,81
2022-10-07T21:41:19.294Z,81
2022-10-07T21:44:19.317Z,81
2022-10-07T21:47:19.294Z,81
2022-10-07T21:50:19.306Z,81
2022-10-07T21:53:19.298Z,81
2022-10-07T21:56:19.308Z,81
2022-10-07T21:59:19.329Z,81
2022-10-07T22:02:19.343Z,81
2022-10-07T22:05:19.293Z,81
2022-10-07T22:08:19.302Z,81
2022-10-07T22:11:19.302Z,81
2022-10-07T22:14:19.317Z,82
2022-10-07T22:17:19.308Z,82
2022-10-07T22:20:19.291Z,82
2022-10-07T22:23:19.319Z,82
2022-10-07T22:26:19.308Z,82
2022-10-07T22:29:19.316Z,82
2022-10-07T22:32:19.309Z,82
2022-10-07T22:35:19.312Z,82
2022-10-07T22:38:19.310Z,82
2022-10-07T22:41:19.296Z,82
2022-10-07T22:44:19.314Z,82
2022-10-07T22:47:19.304Z,82
2022-10-07T22:50:19.309Z,82
2022-10-07T22:53:19.299Z,82
2022-10-07T22:56:19.309Z,82
2022-10-07T22:59:19.311Z,82
2022-10-07T23:02:19.325Z,82
2022-10-07T23:05:19.294Z,82
2022-10-07T23:08:19.365Z,83
2022-10-07T23:11:19.359Z,83
2022-10-07T23:14:19.374Z,83
2022-10-07T23:17:19.354Z,83
2022-10-07T23:20:19.369Z,83
2022-10-07T23:23:19.358Z,83
2022-10-07T23:26:19.362Z,83
2022-10-07T23:29:19.377Z,83
2022-10-07T23:32:19.363Z,83
2022-10-07T23:35:19.366Z,83
2022-10-07T23:38:19.377Z,83
2022-10-07T23:41:19.363Z,83
2022-10-07T23:44:19.373Z,83
2022-10-07T23:47:19.398Z,83
2022-10-07T23:50:19.366Z,83
2022-10-07T23:53:19.382Z,83
2022-10-07T23:56:19.367Z,83
2022-10-07T23:59:19.380Z,83
